sensor_id;sensor_type;location;lat;lon;timestamp;P1;durP1;ratioP1;P2;durP2;ratioP2
33802;SDS011;20110;53.120;5.786;2022-11-12T00:00:47;35.38;;;15.30;;
33802;SDS011;20110;53.120;5.786;2022-11-12T00:03:15;29.20;;;14.20;;
33802;SDS011;20110;53.120;5.786;2022-11-12T00:05:42;29.58;;;13.43;;
33802;SDS011;20110;53.120;5.786;2022-11-12T00:08:10;34.45;;;15.07;;
33802;SDS011;20110;53.120;5.786;2022-11-12T00:10:37;36.35;;;17.20;;
33802;SDS011;20110;53.120;5.786;2022-11-12T00:13:03;56.38;;;16.88;;
33802;SDS011;20110;53.120;5.786;2022-11-12T00:15:29;31.45;;;16.05;;
33802;SDS011;20110;53.120;5.786;2022-11-12T00:17:55;27.88;;;14.10;;
33802;SDS011;20110;53.120;5.786;2022-11-12T00:20:20;32.08;;;15.43;;
33802;SDS011;20110;53.120;5.786;2022-11-12T00:22:46;33.92;;;16.77;;
33802;SDS011;20110;53.120;5.786;2022-11-12T00:25:12;34.95;;;17.92;;
33802;SDS011;20110;53.120;5.786;2022-11-12T00:27:38;42.88;;;17.13;;
33802;SDS011;20110;53.120;5.786;2022-11-12T00:30:04;38.72;;;17.17;;
33802;SDS011;20110;53.120;5.786;2022-11-12T00:32:33;42.65;;;17.38;;
33802;SDS011;20110;53.120;5.786;2022-11-12T00:35:01;43.58;;;18.17;;
33802;SDS011;20110;53.120;5.786;2022-11-12T00:37:28;33.00;;;16.35;;
33802;SDS011;20110;53.120;5.786;2022-11-12T00:39:54;38.60;;;17.08;;
33802;SDS011;20110;53.120;5.786;2022-11-12T00:42:20;36.50;;;16.27;;
33802;SDS011;20110;53.120;5.786;2022-11-12T00:44:46;39.22;;;17.35;;
33802;SDS011;20110;53.120;5.786;2022-11-12T00:47:14;40.83;;;17.75;;
33802;SDS011;20110;53.120;5.786;2022-11-12T00:49:40;48.78;;;20.05;;
33802;SDS011;20110;53.120;5.786;2022-11-12T00:52:06;45.10;;;18.58;;
33802;SDS011;20110;53.120;5.786;2022-11-12T00:54:32;50.05;;;19.65;;
33802;SDS011;20110;53.120;5.786;2022-11-12T00:56:58;48.28;;;19.30;;
33802;SDS011;20110;53.120;5.786;2022-11-12T00:59:24;41.72;;;18.05;;
33802;SDS011;20110;53.120;5.786;2022-11-12T01:01:50;48.33;;;18.20;;
33802;SDS011;20110;53.120;5.786;2022-11-12T01:04:16;47.53;;;19.60;;
33802;SDS011;20110;53.120;5.786;2022-11-12T01:06:42;48.42;;;19.67;;
33802;SDS011;20110;53.120;5.786;2022-11-12T01:09:08;48.10;;;20.17;;
33802;SDS011;20110;53.120;5.786;2022-11-12T01:11:34;47.22;;;20.45;;
33802;SDS011;20110;53.120;5.786;2022-11-12T01:14:01;47.97;;;20.35;;
33802;SDS011;20110;53.120;5.786;2022-11-12T01:16:37;57.47;;;20.40;;
33802;SDS011;20110;53.120;5.786;2022-11-12T01:19:05;52.85;;;18.50;;
33802;SDS011;20110;53.120;5.786;2022-11-12T01:21:36;41.20;;;17.75;;
33802;SDS011;20110;53.120;5.786;2022-11-12T01:24:06;50.70;;;16.45;;
33802;SDS011;20110;53.120;5.786;2022-11-12T01:26:33;52.38;;;16.67;;
33802;SDS011;20110;53.120;5.786;2022-11-12T01:28:59;76.18;;;17.83;;
33802;SDS011;20110;53.120;5.786;2022-11-12T01:31:26;48.45;;;16.25;;
33802;SDS011;20110;53.120;5.786;2022-11-12T01:34:01;50.83;;;16.40;;
33802;SDS011;20110;53.120;5.786;2022-11-12T01:36:32;123.85;;;18.85;;
33802;SDS011;20110;53.120;5.786;2022-11-12T01:39:01;201.45;;;20.92;;
33802;SDS011;20110;53.120;5.786;2022-11-12T01:41:30;141.85;;;17.02;;
33802;SDS011;20110;53.120;5.786;2022-11-12T01:44:09;202.27;;;21.05;;
33802;SDS011;20110;53.120;5.786;2022-11-12T01:49:43;162.18;;;20.67;;
33802;SDS011;20110;53.120;5.786;2022-11-12T01:52:21;260.27;;;22.77;;
33802;SDS011;20110;53.120;5.786;2022-11-12T01:55:13;73.38;;;17.08;;
33802;SDS011;20110;53.120;5.786;2022-11-12T01:57:47;64.22;;;16.75;;
33802;SDS011;20110;53.120;5.786;2022-11-12T02:00:20;34.13;;;14.73;;
33802;SDS011;20110;53.120;5.786;2022-11-12T02:02:49;38.63;;;15.85;;
33802;SDS011;20110;53.120;5.786;2022-11-12T02:05:21;37.03;;;17.17;;
33802;SDS011;20110;53.120;5.786;2022-11-12T02:07:51;49.88;;;18.75;;
33802;SDS011;20110;53.120;5.786;2022-11-12T02:10:18;61.08;;;18.83;;
33802;SDS011;20110;53.120;5.786;2022-11-12T02:12:46;57.90;;;18.50;;
33802;SDS011;20110;53.120;5.786;2022-11-12T02:15:32;63.70;;;19.65;;
33802;SDS011;20110;53.120;5.786;2022-11-12T02:17:58;49.47;;;19.60;;
33802;SDS011;20110;53.120;5.786;2022-11-12T02:20:24;48.20;;;17.65;;
33802;SDS011;20110;53.120;5.786;2022-11-12T02:22:50;52.60;;;19.35;;
33802;SDS011;20110;53.120;5.786;2022-11-12T02:25:17;43.60;;;17.23;;
33802;SDS011;20110;53.120;5.786;2022-11-12T02:27:46;54.95;;;19.25;;
33802;SDS011;20110;53.120;5.786;2022-11-12T02:30:16;47.35;;;18.48;;
33802;SDS011;20110;53.120;5.786;2022-11-12T02:33:04;54.97;;;18.98;;
33802;SDS011;20110;53.120;5.786;2022-11-12T02:35:30;50.63;;;19.40;;
33802;SDS011;20110;53.120;5.786;2022-11-12T02:37:58;42.13;;;18.42;;
33802;SDS011;20110;53.120;5.786;2022-11-12T02:40:24;63.75;;;20.58;;
33802;SDS011;20110;53.120;5.786;2022-11-12T02:42:50;53.40;;;20.25;;
33802;SDS011;20110;53.120;5.786;2022-11-12T02:45:16;52.55;;;21.17;;
33802;SDS011;20110;53.120;5.786;2022-11-12T02:47:44;52.35;;;21.83;;
33802;SDS011;20110;53.120;5.786;2022-11-12T02:50:10;54.42;;;22.73;;
33802;SDS011;20110;53.120;5.786;2022-11-12T02:52:36;51.17;;;21.10;;
33802;SDS011;20110;53.120;5.786;2022-11-12T02:55:04;52.08;;;21.65;;
33802;SDS011;20110;53.120;5.786;2022-11-12T02:57:32;49.40;;;20.90;;
33802;SDS011;20110;53.120;5.786;2022-11-12T02:59:58;75.88;;;25.50;;
33802;SDS011;20110;53.120;5.786;2022-11-12T03:02:23;60.85;;;22.85;;
33802;SDS011;20110;53.120;5.786;2022-11-12T03:04:49;55.15;;;22.20;;
33802;SDS011;20110;53.120;5.786;2022-11-12T03:07:15;55.95;;;23.05;;
33802;SDS011;20110;53.120;5.786;2022-11-12T03:09:41;68.63;;;24.02;;
33802;SDS011;20110;53.120;5.786;2022-11-12T03:12:06;560.63;;;61.10;;
33802;SDS011;20110;53.120;5.786;2022-11-12T03:14:32;51.50;;;22.55;;
33802;SDS011;20110;53.120;5.786;2022-11-12T03:16:58;54.80;;;23.23;;
33802;SDS011;20110;53.120;5.786;2022-11-12T03:19:24;56.30;;;21.60;;
33802;SDS011;20110;53.120;5.786;2022-11-12T03:21:50;43.70;;;18.50;;
33802;SDS011;20110;53.120;5.786;2022-11-12T03:24:15;51.10;;;22.25;;
33802;SDS011;20110;53.120;5.786;2022-11-12T03:26:41;55.20;;;24.27;;
33802;SDS011;20110;53.120;5.786;2022-11-12T03:29:07;67.97;;;25.55;;
33802;SDS011;20110;53.120;5.786;2022-11-12T03:31:33;57.67;;;23.90;;
33802;SDS011;20110;53.120;5.786;2022-11-12T03:33:59;68.50;;;24.88;;
33802;SDS011;20110;53.120;5.786;2022-11-12T03:36:25;66.30;;;24.92;;
33802;SDS011;20110;53.120;5.786;2022-11-12T03:38:51;55.45;;;23.95;;
33802;SDS011;20110;53.120;5.786;2022-11-12T03:41:17;65.22;;;26.90;;
33802;SDS011;20110;53.120;5.786;2022-11-12T03:43:43;60.10;;;25.65;;
33802;SDS011;20110;53.120;5.786;2022-11-12T03:46:08;58.63;;;24.88;;
33802;SDS011;20110;53.120;5.786;2022-11-12T03:48:35;64.90;;;27.35;;
33802;SDS011;20110;53.120;5.786;2022-11-12T03:51:01;64.45;;;25.10;;
33802;SDS011;20110;53.120;5.786;2022-11-12T03:53:27;55.58;;;22.65;;
33802;SDS011;20110;53.120;5.786;2022-11-12T03:55:53;63.30;;;23.85;;
33802;SDS011;20110;53.120;5.786;2022-11-12T03:58:19;68.40;;;23.58;;
33802;SDS011;20110;53.120;5.786;2022-11-12T04:00:44;57.85;;;23.58;;
33802;SDS011;20110;53.120;5.786;2022-11-12T04:03:10;71.90;;;25.77;;
33802;SDS011;20110;53.120;5.786;2022-11-12T04:05:36;89.45;;;27.83;;
33802;SDS011;20110;53.120;5.786;2022-11-12T04:08:21;90.78;;;26.02;;
33802;SDS011;20110;53.120;5.786;2022-11-12T04:11:01;76.40;;;25.85;;
33802;SDS011;20110;53.120;5.786;2022-11-12T04:13:40;109.10;;;27.58;;
33802;SDS011;20110;53.120;5.786;2022-11-12T04:16:13;132.07;;;29.92;;
33802;SDS011;20110;53.120;5.786;2022-11-12T04:19:04;170.35;;;32.78;;
33802;SDS011;20110;53.120;5.786;2022-11-12T04:21:54;203.10;;;36.58;;
33802;SDS011;20110;53.120;5.786;2022-11-12T04:24:31;162.38;;;33.65;;
33802;SDS011;20110;53.120;5.786;2022-11-12T04:27:22;197.48;;;36.78;;
33802;SDS011;20110;53.120;5.786;2022-11-12T04:29:53;204.05;;;39.60;;
33802;SDS011;20110;53.120;5.786;2022-11-12T04:32:49;249.68;;;38.55;;
33802;SDS011;20110;53.120;5.786;2022-11-12T04:35:18;244.35;;;40.35;;
33802;SDS011;20110;53.120;5.786;2022-11-12T04:37:46;199.80;;;35.90;;
33802;SDS011;20110;53.120;5.786;2022-11-12T04:40:18;287.92;;;41.33;;
33802;SDS011;20110;53.120;5.786;2022-11-12T04:43:08;328.33;;;43.88;;
33802;SDS011;20110;53.120;5.786;2022-11-12T04:45:58;307.70;;;44.80;;
33802;SDS011;20110;53.120;5.786;2022-11-12T04:48:27;346.77;;;48.03;;
33802;SDS011;20110;53.120;5.786;2022-11-12T04:50:55;1198.32;;;148.15;;
33802;SDS011;20110;53.120;5.786;2022-11-12T04:53:25;483.02;;;58.53;;
33802;SDS011;20110;53.120;5.786;2022-11-12T04:55:53;501.90;;;59.60;;
33802;SDS011;20110;53.120;5.786;2022-11-12T04:58:21;448.27;;;57.92;;
33802;SDS011;20110;53.120;5.786;2022-11-12T05:00:48;314.95;;;46.72;;
33802;SDS011;20110;53.120;5.786;2022-11-12T05:03:15;479.65;;;58.45;;
33802;SDS011;20110;53.120;5.786;2022-11-12T05:05:41;424.92;;;57.90;;
33802;SDS011;20110;53.120;5.786;2022-11-12T05:08:07;536.25;;;64.90;;
33802;SDS011;20110;53.120;5.786;2022-11-12T05:10:34;403.50;;;56.05;;
33802;SDS011;20110;53.120;5.786;2022-11-12T05:12:59;501.27;;;59.97;;
33802;SDS011;20110;53.120;5.786;2022-11-12T05:15:25;430.65;;;55.72;;
33802;SDS011;20110;53.120;5.786;2022-11-12T05:17:51;445.33;;;57.88;;
33802;SDS011;20110;53.120;5.786;2022-11-12T05:20:17;212.27;;;33.58;;
33802;SDS011;20110;53.120;5.786;2022-11-12T05:22:43;401.75;;;53.47;;
33802;SDS011;20110;53.120;5.786;2022-11-12T05:25:09;419.55;;;51.67;;
33802;SDS011;20110;53.120;5.786;2022-11-12T05:27:34;521.67;;;62.60;;
33802;SDS011;20110;53.120;5.786;2022-11-12T05:30:00;448.80;;;58.05;;
33802;SDS011;20110;53.120;5.786;2022-11-12T05:32:27;713.47;;;87.68;;
33802;SDS011;20110;53.120;5.786;2022-11-12T05:34:53;503.77;;;61.22;;
33802;SDS011;20110;53.120;5.786;2022-11-12T05:37:19;397.35;;;46.75;;
33802;SDS011;20110;53.120;5.786;2022-11-12T05:39:45;329.30;;;46.92;;
33802;SDS011;20110;53.120;5.786;2022-11-12T05:42:11;400.77;;;52.05;;
33802;SDS011;20110;53.120;5.786;2022-11-12T05:44:36;486.20;;;60.30;;
33802;SDS011;20110;53.120;5.786;2022-11-12T05:47:02;604.80;;;70.50;;
33802;SDS011;20110;53.120;5.786;2022-11-12T05:49:28;451.85;;;60.72;;
33802;SDS011;20110;53.120;5.786;2022-11-12T05:51:54;470.65;;;62.35;;
33802;SDS011;20110;53.120;5.786;2022-11-12T05:54:20;498.98;;;61.15;;
33802;SDS011;20110;53.120;5.786;2022-11-12T05:56:46;510.15;;;63.25;;
33802;SDS011;20110;53.120;5.786;2022-11-12T05:59:12;485.27;;;59.25;;
33802;SDS011;20110;53.120;5.786;2022-11-12T06:01:38;541.00;;;62.25;;
33802;SDS011;20110;53.120;5.786;2022-11-12T06:04:11;495.95;;;56.17;;
33802;SDS011;20110;53.120;5.786;2022-11-12T06:06:39;530.42;;;65.80;;
33802;SDS011;20110;53.120;5.786;2022-11-12T06:09:07;579.83;;;70.93;;
33802;SDS011;20110;53.120;5.786;2022-11-12T06:11:34;395.98;;;59.20;;
33802;SDS011;20110;53.120;5.786;2022-11-12T06:14:01;501.10;;;66.25;;
33802;SDS011;20110;53.120;5.786;2022-11-12T06:16:28;514.03;;;65.53;;
33802;SDS011;20110;53.120;5.786;2022-11-12T06:18:55;531.50;;;69.22;;
33802;SDS011;20110;53.120;5.786;2022-11-12T06:21:21;461.90;;;62.55;;
33802;SDS011;20110;53.120;5.786;2022-11-12T06:23:54;623.53;;;77.85;;
33802;SDS011;20110;53.120;5.786;2022-11-12T06:26:23;467.90;;;67.78;;
33802;SDS011;20110;53.120;5.786;2022-11-12T06:28:52;501.70;;;69.93;;
33802;SDS011;20110;53.120;5.786;2022-11-12T06:31:18;459.45;;;68.22;;
33802;SDS011;20110;53.120;5.786;2022-11-12T06:33:45;468.00;;;67.82;;
33802;SDS011;20110;53.120;5.786;2022-11-12T06:36:13;420.52;;;66.25;;
33802;SDS011;20110;53.120;5.786;2022-11-12T06:38:41;503.88;;;72.80;;
33802;SDS011;20110;53.120;5.786;2022-11-12T06:41:09;456.35;;;66.95;;
33802;SDS011;20110;53.120;5.786;2022-11-12T06:43:36;387.10;;;65.18;;
33802;SDS011;20110;53.120;5.786;2022-11-12T06:46:04;748.55;;;93.22;;
33802;SDS011;20110;53.120;5.786;2022-11-12T06:48:41;437.95;;;61.05;;
33802;SDS011;20110;53.120;5.786;2022-11-12T06:51:08;543.60;;;69.88;;
33802;SDS011;20110;53.120;5.786;2022-11-12T06:53:41;369.92;;;51.42;;
33802;SDS011;20110;53.120;5.786;2022-11-12T06:56:07;501.13;;;64.30;;
33802;SDS011;20110;53.120;5.786;2022-11-12T06:58:33;516.00;;;65.20;;
33802;SDS011;20110;53.120;5.786;2022-11-12T07:01:13;562.15;;;67.25;;
33802;SDS011;20110;53.120;5.786;2022-11-12T07:03:41;520.88;;;65.78;;
33802;SDS011;20110;53.120;5.786;2022-11-12T07:06:12;566.92;;;67.25;;
33802;SDS011;20110;53.120;5.786;2022-11-12T07:08:43;546.20;;;66.13;;
33802;SDS011;20110;53.120;5.786;2022-11-12T07:11:09;480.77;;;63.35;;
33802;SDS011;20110;53.120;5.786;2022-11-12T07:13:35;499.75;;;63.00;;
33802;SDS011;20110;53.120;5.786;2022-11-12T07:16:02;536.58;;;57.55;;
33802;SDS011;20110;53.120;5.786;2022-11-12T07:18:30;567.05;;;66.95;;
33802;SDS011;20110;53.120;5.786;2022-11-12T07:21:02;446.77;;;59.15;;
33802;SDS011;20110;53.120;5.786;2022-11-12T07:23:34;482.70;;;57.33;;
33802;SDS011;20110;53.120;5.786;2022-11-12T07:26:05;528.75;;;66.03;;
33802;SDS011;20110;53.120;5.786;2022-11-12T07:28:44;623.58;;;72.75;;
33802;SDS011;20110;53.120;5.786;2022-11-12T07:31:11;522.80;;;70.18;;
33802;SDS011;20110;53.120;5.786;2022-11-12T07:33:39;616.92;;;72.97;;
33802;SDS011;20110;53.120;5.786;2022-11-12T07:36:10;609.85;;;75.55;;
33802;SDS011;20110;53.120;5.786;2022-11-12T07:38:41;562.67;;;68.97;;
33802;SDS011;20110;53.120;5.786;2022-11-12T07:41:15;581.90;;;70.85;;
33802;SDS011;20110;53.120;5.786;2022-11-12T07:43:44;564.92;;;69.97;;
33802;SDS011;20110;53.120;5.786;2022-11-12T07:46:13;546.90;;;66.20;;
33802;SDS011;20110;53.120;5.786;2022-11-12T07:48:42;515.28;;;62.88;;
33802;SDS011;20110;53.120;5.786;2022-11-12T07:51:14;490.20;;;64.93;;
33802;SDS011;20110;53.120;5.786;2022-11-12T07:53:42;481.92;;;60.95;;
33802;SDS011;20110;53.120;5.786;2022-11-12T07:56:13;441.23;;;58.47;;
33802;SDS011;20110;53.120;5.786;2022-11-12T08:03:57;451.70;;;57.63;;
33802;SDS011;20110;53.120;5.786;2022-11-12T08:06:25;391.83;;;56.90;;
33802;SDS011;20110;53.120;5.786;2022-11-12T08:08:53;362.33;;;54.45;;
33802;SDS011;20110;53.120;5.786;2022-11-12T08:11:20;416.10;;;60.90;;
33802;SDS011;20110;53.120;5.786;2022-11-12T08:13:47;342.95;;;52.67;;
33802;SDS011;20110;53.120;5.786;2022-11-12T08:16:13;361.25;;;55.08;;
33802;SDS011;20110;53.120;5.786;2022-11-12T08:18:39;287.98;;;48.78;;
33802;SDS011;20110;53.120;5.786;2022-11-12T08:21:07;308.98;;;50.70;;
33802;SDS011;20110;53.120;5.786;2022-11-12T08:23:37;274.08;;;48.47;;
33802;SDS011;20110;53.120;5.786;2022-11-12T08:26:04;323.40;;;51.05;;
33802;SDS011;20110;53.120;5.786;2022-11-12T08:28:33;257.95;;;42.45;;
33802;SDS011;20110;53.120;5.786;2022-11-12T08:31:05;318.63;;;48.80;;
33802;SDS011;20110;53.120;5.786;2022-11-12T08:33:34;262.15;;;42.30;;
33802;SDS011;20110;53.120;5.786;2022-11-12T08:36:02;315.35;;;45.25;;
33802;SDS011;20110;53.120;5.786;2022-11-12T08:38:30;283.58;;;44.67;;
33802;SDS011;20110;53.120;5.786;2022-11-12T08:41:03;364.45;;;51.50;;
33802;SDS011;20110;53.120;5.786;2022-11-12T08:43:33;350.40;;;53.45;;
33802;SDS011;20110;53.120;5.786;2022-11-12T08:46:01;343.52;;;50.95;;
33802;SDS011;20110;53.120;5.786;2022-11-12T08:48:28;366.90;;;46.28;;
33802;SDS011;20110;53.120;5.786;2022-11-12T08:50:55;419.77;;;49.65;;
33802;SDS011;20110;53.120;5.786;2022-11-12T08:53:23;417.27;;;53.28;;
33802;SDS011;20110;53.120;5.786;2022-11-12T08:55:52;438.85;;;54.50;;
33802;SDS011;20110;53.120;5.786;2022-11-12T08:58:22;315.30;;;44.42;;
33802;SDS011;20110;53.120;5.786;2022-11-12T09:00:49;314.25;;;45.42;;
33802;SDS011;20110;53.120;5.786;2022-11-12T09:03:17;358.33;;;47.88;;
33802;SDS011;20110;53.120;5.786;2022-11-12T09:05:46;387.50;;;50.08;;
33802;SDS011;20110;53.120;5.786;2022-11-12T09:08:14;403.13;;;48.95;;
33802;SDS011;20110;53.120;5.786;2022-11-12T09:10:44;386.15;;;50.13;;
33802;SDS011;20110;53.120;5.786;2022-11-12T09:13:11;339.75;;;46.15;;
33802;SDS011;20110;53.120;5.786;2022-11-12T09:15:38;342.85;;;47.42;;
33802;SDS011;20110;53.120;5.786;2022-11-12T09:18:05;208.70;;;36.53;;
33802;SDS011;20110;53.120;5.786;2022-11-12T09:20:36;329.85;;;45.97;;
33802;SDS011;20110;53.120;5.786;2022-11-12T09:23:10;306.90;;;46.03;;
33802;SDS011;20110;53.120;5.786;2022-11-12T09:25:39;311.98;;;46.47;;
33802;SDS011;20110;53.120;5.786;2022-11-12T09:28:09;425.08;;;50.03;;
33802;SDS011;20110;53.120;5.786;2022-11-12T09:30:41;337.48;;;38.22;;
33802;SDS011;20110;53.120;5.786;2022-11-12T09:33:11;362.10;;;43.45;;
33802;SDS011;20110;53.120;5.786;2022-11-12T09:35:38;145.30;;;23.77;;
33802;SDS011;20110;53.120;5.786;2022-11-12T09:38:04;259.05;;;39.13;;
33802;SDS011;20110;53.120;5.786;2022-11-12T09:40:35;229.77;;;36.00;;
33802;SDS011;20110;53.120;5.786;2022-11-12T09:43:23;280.67;;;40.50;;
33802;SDS011;20110;53.120;5.786;2022-11-12T09:46:00;325.45;;;37.97;;
33802;SDS011;20110;53.120;5.786;2022-11-12T09:48:48;185.70;;;32.95;;
33802;SDS011;20110;53.120;5.786;2022-11-12T09:51:52;276.38;;;35.20;;
33802;SDS011;20110;53.120;5.786;2022-11-12T09:54:27;347.80;;;42.42;;
33802;SDS011;20110;53.120;5.786;2022-11-12T09:56:57;358.40;;;43.45;;
33802;SDS011;20110;53.120;5.786;2022-11-12T09:59:26;375.70;;;47.17;;
33802;SDS011;20110;53.120;5.786;2022-11-12T10:16:08;268.05;;;41.03;;
33802;SDS011;20110;53.120;5.786;2022-11-12T10:19:19;305.45;;;44.78;;
33802;SDS011;20110;53.120;5.786;2022-11-12T10:22:16;280.02;;;42.22;;
33802;SDS011;20110;53.120;5.786;2022-11-12T10:25:18;273.00;;;41.88;;
33802;SDS011;20110;53.120;5.786;2022-11-12T10:27:53;266.98;;;42.22;;
33802;SDS011;20110;53.120;5.786;2022-11-12T10:32:48;154.57;;;34.78;;
33802;SDS011;20110;53.120;5.786;2022-11-12T10:35:20;192.48;;;42.22;;
33802;SDS011;20110;53.120;5.786;2022-11-12T10:38:01;217.60;;;42.28;;
33802;SDS011;20110;53.120;5.786;2022-11-12T10:40:35;226.45;;;43.05;;
33802;SDS011;20110;53.120;5.786;2022-11-12T10:45:44;190.38;;;44.42;;
33802;SDS011;20110;53.120;5.786;2022-11-12T10:50:57;174.52;;;44.50;;
33802;SDS011;20110;53.120;5.786;2022-11-12T10:53:31;154.98;;;44.92;;
33802;SDS011;20110;53.120;5.786;2022-11-12T10:56:04;181.50;;;46.60;;
33802;SDS011;20110;53.120;5.786;2022-11-12T11:01:36;173.70;;;50.95;;
33802;SDS011;20110;53.120;5.786;2022-11-12T11:04:03;177.25;;;48.22;;
33802;SDS011;20110;53.120;5.786;2022-11-12T11:06:29;169.13;;;47.03;;
33802;SDS011;20110;53.120;5.786;2022-11-12T11:11:51;171.60;;;45.33;;
33802;SDS011;20110;53.120;5.786;2022-11-12T11:16:54;196.35;;;49.13;;
33802;SDS011;20110;53.120;5.786;2022-11-12T11:19:31;188.38;;;50.55;;
33802;SDS011;20110;53.120;5.786;2022-11-12T11:33:56;159.82;;;45.78;;
33802;SDS011;20110;53.120;5.786;2022-11-12T11:36:51;139.98;;;43.72;;
33802;SDS011;20110;53.120;5.786;2022-11-12T11:39:51;148.30;;;44.10;;
33802;SDS011;20110;53.120;5.786;2022-11-12T11:54:01;149.32;;;46.42;;
33802;SDS011;20110;53.120;5.786;2022-11-12T11:56:46;150.93;;;48.20;;
33802;SDS011;20110;53.120;5.786;2022-11-12T11:59:21;156.93;;;50.30;;
33802;SDS011;20110;53.120;5.786;2022-11-12T12:14:57;171.70;;;53.83;;
33802;SDS011;20110;53.120;5.786;2022-11-12T12:23:40;185.75;;;59.90;;
33802;SDS011;20110;53.120;5.786;2022-11-12T12:26:02;185.13;;;63.13;;
33802;SDS011;20110;53.120;5.786;2022-11-12T12:28:46;183.98;;;59.78;;
33802;SDS011;20110;53.120;5.786;2022-11-12T12:31:46;172.93;;;58.03;;
33802;SDS011;20110;53.120;5.786;2022-11-12T12:34:31;182.55;;;60.97;;
33802;SDS011;20110;53.120;5.786;2022-11-12T12:37:26;189.27;;;62.15;;
33802;SDS011;20110;53.120;5.786;2022-11-12T12:45:58;154.82;;;54.97;;
33802;SDS011;20110;53.120;5.786;2022-11-12T12:48:30;144.48;;;54.75;;
33802;SDS011;20110;53.120;5.786;2022-11-12T12:51:00;144.80;;;53.63;;
33802;SDS011;20110;53.120;5.786;2022-11-12T12:55:53;157.40;;;54.95;;
33802;SDS011;20110;53.120;5.786;2022-11-12T12:58:32;164.65;;;59.22;;
33802;SDS011;20110;53.120;5.786;2022-11-12T13:01:31;186.57;;;60.03;;
33802;SDS011;20110;53.120;5.786;2022-11-12T13:04:00;169.07;;;60.40;;
33802;SDS011;20110;53.120;5.786;2022-11-12T13:37:54;140.35;;;53.13;;
33802;SDS011;20110;53.120;5.786;2022-11-12T13:40:40;144.98;;;55.50;;
33802;SDS011;20110;53.120;5.786;2022-11-12T13:53:41;117.50;;;49.35;;
33802;SDS011;20110;53.120;5.786;2022-11-12T13:56:08;118.10;;;48.38;;
33802;SDS011;20110;53.120;5.786;2022-11-12T13:58:36;115.35;;;50.20;;
33802;SDS011;20110;53.120;5.786;2022-11-12T14:01:09;120.70;;;49.72;;
33802;SDS011;20110;53.120;5.786;2022-11-12T14:03:46;115.50;;;47.60;;
33802;SDS011;20110;53.120;5.786;2022-11-12T14:06:20;120.38;;;50.17;;
33802;SDS011;20110;53.120;5.786;2022-11-12T14:21:05;106.47;;;45.08;;
33802;SDS011;20110;53.120;5.786;2022-11-12T14:23:39;98.28;;;45.45;;
33802;SDS011;20110;53.120;5.786;2022-11-12T14:26:12;99.10;;;44.35;;
33802;SDS011;20110;53.120;5.786;2022-11-12T14:29:01;91.45;;;43.38;;
33802;SDS011;20110;53.120;5.786;2022-11-12T14:31:27;88.55;;;42.42;;
33802;SDS011;20110;53.120;5.786;2022-11-12T14:33:53;88.35;;;41.78;;
33802;SDS011;20110;53.120;5.786;2022-11-12T14:36:19;86.57;;;42.15;;
33802;SDS011;20110;53.120;5.786;2022-11-12T14:38:48;94.88;;;43.58;;
33802;SDS011;20110;53.120;5.786;2022-11-12T14:41:29;90.22;;;42.92;;
33802;SDS011;20110;53.120;5.786;2022-11-12T14:44:01;94.53;;;42.53;;
33802;SDS011;20110;53.120;5.786;2022-11-12T14:46:36;84.75;;;42.20;;
33802;SDS011;20110;53.120;5.786;2022-11-12T14:52:24;88.07;;;40.85;;
33802;SDS011;20110;53.120;5.786;2022-11-12T14:54:56;90.22;;;41.15;;
33802;SDS011;20110;53.120;5.786;2022-11-12T14:57:31;89.95;;;42.72;;
33802;SDS011;20110;53.120;5.786;2022-11-12T14:59:57;90.93;;;43.22;;
33802;SDS011;20110;53.120;5.786;2022-11-12T15:02:29;101.32;;;43.17;;
33802;SDS011;20110;53.120;5.786;2022-11-12T15:05:01;85.03;;;41.08;;
33802;SDS011;20110;53.120;5.786;2022-11-12T15:10:47;101.10;;;42.88;;
33802;SDS011;20110;53.120;5.786;2022-11-12T15:16:03;97.63;;;40.33;;
33802;SDS011;20110;53.120;5.786;2022-11-12T15:18:32;79.03;;;39.15;;
33802;SDS011;20110;53.120;5.786;2022-11-12T15:23:51;95.72;;;41.10;;
33802;SDS011;20110;53.120;5.786;2022-11-12T15:26:40;82.97;;;38.88;;
33802;SDS011;20110;53.120;5.786;2022-11-12T15:37:05;86.35;;;41.45;;
33802;SDS011;20110;53.120;5.786;2022-11-12T15:39:55;87.72;;;41.42;;
33802;SDS011;20110;53.120;5.786;2022-11-12T15:44:59;94.10;;;43.15;;
33802;SDS011;20110;53.120;5.786;2022-11-12T15:47:37;92.15;;;40.65;;
33802;SDS011;20110;53.120;5.786;2022-11-12T15:50:36;87.18;;;40.65;;
33802;SDS011;20110;53.120;5.786;2022-11-12T15:52:55;100.35;;;40.63;;
33802;SDS011;20110;53.120;5.786;2022-11-12T15:55:22;85.15;;;38.53;;
33802;SDS011;20110;53.120;5.786;2022-11-12T15:57:48;89.35;;;38.85;;
33802;SDS011;20110;53.120;5.786;2022-11-12T16:00:20;100.85;;;42.75;;
33802;SDS011;20110;53.120;5.786;2022-11-12T16:02:56;95.90;;;42.00;;
33802;SDS011;20110;53.120;5.786;2022-11-12T16:05:36;84.72;;;40.20;;
33802;SDS011;20110;53.120;5.786;2022-11-12T16:08:03;82.97;;;38.33;;
33802;SDS011;20110;53.120;5.786;2022-11-12T16:10:29;86.47;;;39.30;;
33802;SDS011;20110;53.120;5.786;2022-11-12T16:12:56;99.72;;;41.60;;
33802;SDS011;20110;53.120;5.786;2022-11-12T16:15:24;92.82;;;40.72;;
33802;SDS011;20110;53.120;5.786;2022-11-12T16:17:51;87.82;;;41.78;;
33802;SDS011;20110;53.120;5.786;2022-11-12T16:20:24;98.55;;;41.38;;
33802;SDS011;20110;53.120;5.786;2022-11-12T16:22:58;103.07;;;40.72;;
33802;SDS011;20110;53.120;5.786;2022-11-12T16:25:28;97.90;;;41.25;;
33802;SDS011;20110;53.120;5.786;2022-11-12T16:27:57;114.25;;;42.03;;
33802;SDS011;20110;53.120;5.786;2022-11-12T16:30:30;112.43;;;42.28;;
33802;SDS011;20110;53.120;5.786;2022-11-12T16:32:57;96.57;;;39.92;;
33802;SDS011;20110;53.120;5.786;2022-11-12T16:35:26;93.82;;;41.22;;
33802;SDS011;20110;53.120;5.786;2022-11-12T16:37:56;104.53;;;44.20;;
33802;SDS011;20110;53.120;5.786;2022-11-12T16:40:23;129.00;;;44.92;;
33802;SDS011;20110;53.120;5.786;2022-11-12T16:42:51;110.97;;;41.42;;
33802;SDS011;20110;53.120;5.786;2022-11-12T16:45:18;110.30;;;42.35;;
33802;SDS011;20110;53.120;5.786;2022-11-12T16:47:53;110.88;;;44.00;;
33802;SDS011;20110;53.120;5.786;2022-11-12T16:50:21;99.47;;;42.80;;
33802;SDS011;20110;53.120;5.786;2022-11-12T16:52:50;101.13;;;43.00;;
33802;SDS011;20110;53.120;5.786;2022-11-12T16:55:19;102.60;;;42.08;;
33802;SDS011;20110;53.120;5.786;2022-11-12T16:57:45;119.80;;;45.60;;
33802;SDS011;20110;53.120;5.786;2022-11-12T17:00:12;102.00;;;41.10;;
33802;SDS011;20110;53.120;5.786;2022-11-12T17:02:41;105.88;;;43.42;;
33802;SDS011;20110;53.120;5.786;2022-11-12T17:05:14;109.10;;;44.72;;
33802;SDS011;20110;53.120;5.786;2022-11-12T17:07:44;99.13;;;41.90;;
33802;SDS011;20110;53.120;5.786;2022-11-12T17:10:10;104.60;;;40.97;;
33802;SDS011;20110;53.120;5.786;2022-11-12T17:12:37;104.13;;;41.08;;
33802;SDS011;20110;53.120;5.786;2022-11-12T17:15:03;95.35;;;42.08;;
33802;SDS011;20110;53.120;5.786;2022-11-12T17:17:30;118.50;;;44.20;;
33802;SDS011;20110;53.120;5.786;2022-11-12T17:19:57;122.32;;;45.28;;